sensor_id;sensor_type;location;lat;lon;timestamp;pressure;altitude;pressure_sealevel;temperature
15062;BMP180;7630;50.306;8.566;2022-09-09T00:00:34;97366.00;;;19.40
15062;BMP180;7630;50.306;8.566;2022-09-09T00:04:38;97359.00;;;19.60
15062;BMP180;7630;50.306;8.566;2022-09-09T00:08:45;97352.00;;;19.90
15062;BMP180;7630;50.306;8.566;2022-09-09T00:17:06;97344.00;;;19.80
15062;BMP180;7630;50.306;8.566;2022-09-09T00:21:14;97338.00;;;20.00
15062;BMP180;7630;50.306;8.566;2022-09-09T00:25:19;97345.00;;;19.70
15062;BMP180;7630;50.306;8.566;2022-09-09T00:29:45;97343.00;;;19.80
15062;BMP180;7630;50.306;8.566;2022-09-09T00:33:26;97335.00;;;20.00
15062;BMP180;7630;50.306;8.566;2022-09-09T00:37:28;97337.00;;;19.50
15062;BMP180;7630;50.306;8.566;2022-09-09T00:54:32;97353.00;;;19.10
15062;BMP180;7630;50.306;8.566;2022-09-09T00:58:33;97355.00;;;19.10
15062;BMP180;7630;50.306;8.566;2022-09-09T01:06:59;97346.00;;;18.90
15062;BMP180;7630;50.306;8.566;2022-09-09T01:11:03;97346.00;;;18.80
15062;BMP180;7630;50.306;8.566;2022-09-09T01:15:30;97348.00;;;18.70
15062;BMP180;7630;50.306;8.566;2022-09-09T01:27:52;97354.00;;;18.60
15062;BMP180;7630;50.306;8.566;2022-09-09T01:31:57;97347.00;;;18.40
15062;BMP180;7630;50.306;8.566;2022-09-09T01:36:02;97345.00;;;18.30
15062;BMP180;7630;50.306;8.566;2022-09-09T01:40:04;97345.00;;;18.20
15062;BMP180;7630;50.306;8.566;2022-09-09T01:44:07;97344.00;;;18.50
15062;BMP180;7630;50.306;8.566;2022-09-09T01:48:09;97346.00;;;18.30
15062;BMP180;7630;50.306;8.566;2022-09-09T01:52:10;97336.00;;;18.40
15062;BMP180;7630;50.306;8.566;2022-09-09T02:00:25;97340.00;;;18.40
15062;BMP180;7630;50.306;8.566;2022-09-09T02:04:42;97338.00;;;18.30
15062;BMP180;7630;50.306;8.566;2022-09-09T02:08:52;97341.00;;;18.50
15062;BMP180;7630;50.306;8.566;2022-09-09T02:13:01;97348.00;;;18.50
15062;BMP180;7630;50.306;8.566;2022-09-09T02:17:03;97344.00;;;18.50
15062;BMP180;7630;50.306;8.566;2022-09-09T02:21:05;97336.00;;;18.70
15062;BMP180;7630;50.306;8.566;2022-09-09T02:25:09;97337.00;;;18.50
15062;BMP180;7630;50.306;8.566;2022-09-09T02:29:17;97345.00;;;18.80
15062;BMP180;7630;50.306;8.566;2022-09-09T02:33:19;97347.00;;;19.10
15062;BMP180;7630;50.306;8.566;2022-09-09T02:37:23;97344.00;;;19.20
15062;BMP180;7630;50.306;8.566;2022-09-09T02:41:28;97338.00;;;19.20
15062;BMP180;7630;50.306;8.566;2022-09-09T02:45:41;97352.00;;;19.40
15062;BMP180;7630;50.306;8.566;2022-09-09T02:54:12;97344.00;;;19.60
15062;BMP180;7630;50.306;8.566;2022-09-09T02:58:17;97341.00;;;19.30
15062;BMP180;7630;50.306;8.566;2022-09-09T03:02:19;97340.00;;;19.20
15062;BMP180;7630;50.306;8.566;2022-09-09T03:06:20;97333.00;;;19.30
15062;BMP180;7630;50.306;8.566;2022-09-09T03:10:21;97334.00;;;19.00
15062;BMP180;7630;50.306;8.566;2022-09-09T03:14:23;97334.00;;;19.30
15062;BMP180;7630;50.306;8.566;2022-09-09T03:18:25;97332.00;;;18.90
15062;BMP180;7630;50.306;8.566;2022-09-09T03:22:27;97329.00;;;19.40
15062;BMP180;7630;50.306;8.566;2022-09-09T03:26:30;97329.00;;;19.50
15062;BMP180;7630;50.306;8.566;2022-09-09T03:30:32;97328.00;;;19.50
15062;BMP180;7630;50.306;8.566;2022-09-09T03:34:33;97326.00;;;19.60
15062;BMP180;7630;50.306;8.566;2022-09-09T03:38:34;97320.00;;;19.20
15062;BMP180;7630;50.306;8.566;2022-09-09T03:42:36;97332.00;;;19.10
15062;BMP180;7630;50.306;8.566;2022-09-09T03:46:37;97337.00;;;18.80
15062;BMP180;7630;50.306;8.566;2022-09-09T03:50:38;97331.00;;;18.70
15062;BMP180;7630;50.306;8.566;2022-09-09T03:54:39;97335.00;;;18.90
15062;BMP180;7630;50.306;8.566;2022-09-09T03:58:42;97328.00;;;18.80
15062;BMP180;7630;50.306;8.566;2022-09-09T04:02:43;97345.00;;;19.30
15062;BMP180;7630;50.306;8.566;2022-09-09T04:06:44;97346.00;;;18.70
15062;BMP180;7630;50.306;8.566;2022-09-09T04:10:47;97341.00;;;18.60
15062;BMP180;7630;50.306;8.566;2022-09-09T04:14:48;97336.00;;;18.70
15062;BMP180;7630;50.306;8.566;2022-09-09T04:18:49;97332.00;;;18.50
15062;BMP180;7630;50.306;8.566;2022-09-09T04:22:50;97330.00;;;18.20
15062;BMP180;7630;50.306;8.566;2022-09-09T04:26:52;97334.00;;;19.40
15062;BMP180;7630;50.306;8.566;2022-09-09T04:30:53;97326.00;;;19.30
15062;BMP180;7630;50.306;8.566;2022-09-09T04:34:54;97318.00;;;19.10
15062;BMP180;7630;50.306;8.566;2022-09-09T04:38:55;97322.00;;;19.00
15062;BMP180;7630;50.306;8.566;2022-09-09T04:43:02;97331.00;;;19.20
15062;BMP180;7630;50.306;8.566;2022-09-09T04:47:05;97328.00;;;19.30
15062;BMP180;7630;50.306;8.566;2022-09-09T04:51:09;97329.00;;;20.00
15062;BMP180;7630;50.306;8.566;2022-09-09T04:55:11;97329.00;;;19.80
15062;BMP180;7630;50.306;8.566;2022-09-09T04:59:13;97341.00;;;19.40
15062;BMP180;7630;50.306;8.566;2022-09-09T05:03:14;97358.00;;;19.40
15062;BMP180;7630;50.306;8.566;2022-09-09T05:07:15;97352.00;;;19.80
15062;BMP180;7630;50.306;8.566;2022-09-09T05:15:25;97348.00;;;20.40
15062;BMP180;7630;50.306;8.566;2022-09-09T05:19:26;97344.00;;;20.30
15062;BMP180;7630;50.306;8.566;2022-09-09T05:23:27;97350.00;;;20.30
15062;BMP180;7630;50.306;8.566;2022-09-09T05:27:28;97347.00;;;19.70
15062;BMP180;7630;50.306;8.566;2022-09-09T05:31:31;97344.00;;;19.90
15062;BMP180;7630;50.306;8.566;2022-09-09T05:35:34;97365.00;;;20.30
15062;BMP180;7630;50.306;8.566;2022-09-09T05:39:35;97366.00;;;20.20
15062;BMP180;7630;50.306;8.566;2022-09-09T05:43:39;97373.00;;;19.40
15062;BMP180;7630;50.306;8.566;2022-09-09T05:47:40;97372.00;;;19.30
15062;BMP180;7630;50.306;8.566;2022-09-09T05:51:47;97396.00;;;19.40
15062;BMP180;7630;50.306;8.566;2022-09-09T05:55:48;97378.00;;;19.10
15062;BMP180;7630;50.306;8.566;2022-09-09T05:59:49;97377.00;;;19.00
15062;BMP180;7630;50.306;8.566;2022-09-09T06:03:53;97382.00;;;18.20
15062;BMP180;7630;50.306;8.566;2022-09-09T06:07:54;97382.00;;;18.10
15062;BMP180;7630;50.306;8.566;2022-09-09T06:11:56;97386.00;;;17.70
15062;BMP180;7630;50.306;8.566;2022-09-09T06:15:58;97386.00;;;18.00
15062;BMP180;7630;50.306;8.566;2022-09-09T06:20:00;97387.00;;;18.20
15062;BMP180;7630;50.306;8.566;2022-09-09T06:24:02;97379.00;;;18.30
15062;BMP180;7630;50.306;8.566;2022-09-09T06:28:04;97374.00;;;18.40
15062;BMP180;7630;50.306;8.566;2022-09-09T06:32:05;97379.00;;;18.50
15062;BMP180;7630;50.306;8.566;2022-09-09T06:36:14;97379.00;;;19.00
15062;BMP180;7630;50.306;8.566;2022-09-09T06:40:15;97373.00;;;19.00
15062;BMP180;7630;50.306;8.566;2022-09-09T06:44:18;97377.00;;;19.30
15062;BMP180;7630;50.306;8.566;2022-09-09T06:48:19;97381.00;;;19.80
15062;BMP180;7630;50.306;8.566;2022-09-09T06:52:21;97373.00;;;19.10
15062;BMP180;7630;50.306;8.566;2022-09-09T07:00:31;97380.00;;;19.40
15062;BMP180;7630;50.306;8.566;2022-09-09T07:04:33;97379.00;;;19.50
15062;BMP180;7630;50.306;8.566;2022-09-09T07:08:34;97389.00;;;19.10
15062;BMP180;7630;50.306;8.566;2022-09-09T07:12:37;97392.00;;;19.10
15062;BMP180;7630;50.306;8.566;2022-09-09T07:16:38;97398.00;;;19.10
15062;BMP180;7630;50.306;8.566;2022-09-09T07:20:40;97386.00;;;19.00
15062;BMP180;7630;50.306;8.566;2022-09-09T07:24:42;97382.00;;;19.00
15062;BMP180;7630;50.306;8.566;2022-09-09T07:28:45;97390.00;;;18.50
15062;BMP180;7630;50.306;8.566;2022-09-09T07:32:46;97401.00;;;18.10
15062;BMP180;7630;50.306;8.566;2022-09-09T07:36:47;97399.00;;;18.40
15062;BMP180;7630;50.306;8.566;2022-09-09T07:40:49;97403.00;;;18.00
15062;BMP180;7630;50.306;8.566;2022-09-09T07:44:50;97401.00;;;18.70
15062;BMP180;7630;50.306;8.566;2022-09-09T07:48:55;97405.00;;;18.60
15062;BMP180;7630;50.306;8.566;2022-09-09T07:52:56;97399.00;;;18.90
15062;BMP180;7630;50.306;8.566;2022-09-09T07:56:58;97411.00;;;19.60
15062;BMP180;7630;50.306;8.566;2022-09-09T08:01:14;97417.00;;;19.30
15062;BMP180;7630;50.306;8.566;2022-09-09T08:05:12;97426.00;;;19.30
15062;BMP180;7630;50.306;8.566;2022-09-09T08:09:14;97437.00;;;19.20
15062;BMP180;7630;50.306;8.566;2022-09-09T08:13:18;97450.00;;;18.60
15062;BMP180;7630;50.306;8.566;2022-09-09T08:17:19;97437.00;;;19.30
15062;BMP180;7630;50.306;8.566;2022-09-09T08:21:26;97439.00;;;19.40
15062;BMP180;7630;50.306;8.566;2022-09-09T08:25:29;97439.00;;;19.90
15062;BMP180;7630;50.306;8.566;2022-09-09T08:29:30;97448.00;;;19.70
15062;BMP180;7630;50.306;8.566;2022-09-09T08:33:32;97456.00;;;19.90
15062;BMP180;7630;50.306;8.566;2022-09-09T08:37:34;97449.00;;;19.70
15062;BMP180;7630;50.306;8.566;2022-09-09T08:46:17;97461.00;;;19.60
15062;BMP180;7630;50.306;8.566;2022-09-09T08:50:30;97458.00;;;19.40
15062;BMP180;7630;50.306;8.566;2022-09-09T08:54:34;97455.00;;;20.00
15062;BMP180;7630;50.306;8.566;2022-09-09T08:58:46;97453.00;;;20.40
15062;BMP180;7630;50.306;8.566;2022-09-09T09:11:19;97450.00;;;20.00
15062;BMP180;7630;50.306;8.566;2022-09-09T09:15:26;97453.00;;;19.90
15062;BMP180;7630;50.306;8.566;2022-09-09T09:19:32;97454.00;;;19.70
15062;BMP180;7630;50.306;8.566;2022-09-09T09:23:39;97462.00;;;19.80
15062;BMP180;7630;50.306;8.566;2022-09-09T09:28:00;97462.00;;;20.20
15062;BMP180;7630;50.306;8.566;2022-09-09T09:32:03;97462.00;;;20.80
15062;BMP180;7630;50.306;8.566;2022-09-09T09:36:04;97459.00;;;21.10
15062;BMP180;7630;50.306;8.566;2022-09-09T09:40:10;97453.00;;;21.20
15062;BMP180;7630;50.306;8.566;2022-09-09T09:44:29;97444.00;;;21.30
15062;BMP180;7630;50.306;8.566;2022-09-09T09:48:28;97445.00;;;20.40
15062;BMP180;7630;50.306;8.566;2022-09-09T09:52:33;97445.00;;;20.50
15062;BMP180;7630;50.306;8.566;2022-09-09T09:56:36;97446.00;;;19.80
15062;BMP180;7630;50.306;8.566;2022-09-09T10:00:47;97431.00;;;20.80
15062;BMP180;7630;50.306;8.566;2022-09-09T10:04:44;97431.00;;;20.60
15062;BMP180;7630;50.306;8.566;2022-09-09T10:08:48;97423.00;;;20.50
15062;BMP180;7630;50.306;8.566;2022-09-09T10:13:05;97435.00;;;21.00
15062;BMP180;7630;50.306;8.566;2022-09-09T10:25:38;97404.00;;;20.60
15062;BMP180;7630;50.306;8.566;2022-09-09T10:42:15;97388.00;;;21.60
15062;BMP180;7630;50.306;8.566;2022-09-09T10:46:23;97389.00;;;21.60
15062;BMP180;7630;50.306;8.566;2022-09-09T10:50:45;97396.00;;;22.00
15062;BMP180;7630;50.306;8.566;2022-09-09T10:55:19;97387.00;;;21.90
15062;BMP180;7630;50.306;8.566;2022-09-09T10:59:27;97398.00;;;21.80
15062;BMP180;7630;50.306;8.566;2022-09-09T11:03:31;97394.00;;;22.80
15062;BMP180;7630;50.306;8.566;2022-09-09T11:07:47;97384.00;;;23.50
15062;BMP180;7630;50.306;8.566;2022-09-09T11:11:42;97390.00;;;23.60
15062;BMP180;7630;50.306;8.566;2022-09-09T11:15:50;97367.00;;;23.60
15062;BMP180;7630;50.306;8.566;2022-09-09T11:19:52;97391.00;;;23.40
15062;BMP180;7630;50.306;8.566;2022-09-09T11:24:00;97390.00;;;22.70
15062;BMP180;7630;50.306;8.566;2022-09-09T11:28:08;97395.00;;;23.40
15062;BMP180;7630;50.306;8.566;2022-09-09T11:41:02;97393.00;;;22.20
15062;BMP180;7630;50.306;8.566;2022-09-09T11:49:26;97398.00;;;22.80
15062;BMP180;7630;50.306;8.566;2022-09-09T11:53:27;97407.00;;;22.30
15062;BMP180;7630;50.306;8.566;2022-09-09T11:57:35;97400.00;;;21.80
15062;BMP180;7630;50.306;8.566;2022-09-09T12:01:38;97411.00;;;21.80
15062;BMP180;7630;50.306;8.566;2022-09-09T12:05:42;97412.00;;;21.40
15062;BMP180;7630;50.306;8.566;2022-09-09T12:14:34;97403.00;;;22.10
15062;BMP180;7630;50.306;8.566;2022-09-09T12:27:11;97409.00;;;21.90
15062;BMP180;7630;50.306;8.566;2022-09-09T12:35:36;97400.00;;;21.90
15062;BMP180;7630;50.306;8.566;2022-09-09T12:39:45;97408.00;;;21.10
15062;BMP180;7630;50.306;8.566;2022-09-09T12:43:47;97404.00;;;21.20
15062;BMP180;7630;50.306;8.566;2022-09-09T12:48:08;97388.00;;;22.20
15062;BMP180;7630;50.306;8.566;2022-09-09T12:52:23;97378.00;;;23.20
15062;BMP180;7630;50.306;8.566;2022-09-09T12:56:33;97385.00;;;22.20
15062;BMP180;7630;50.306;8.566;2022-09-09T13:00:34;97391.00;;;23.20
15062;BMP180;7630;50.306;8.566;2022-09-09T13:04:35;97392.00;;;22.80
15062;BMP180;7630;50.306;8.566;2022-09-09T13:08:37;97385.00;;;23.50
15062;BMP180;7630;50.306;8.566;2022-09-09T13:12:40;97377.00;;;23.40
15062;BMP180;7630;50.306;8.566;2022-09-09T13:16:43;97369.00;;;24.10
15062;BMP180;7630;50.306;8.566;2022-09-09T13:20:48;97361.00;;;24.20
15062;BMP180;7630;50.306;8.566;2022-09-09T13:25:17;97371.00;;;23.60
15062;BMP180;7630;50.306;8.566;2022-09-09T13:28:55;97372.00;;;22.60
15062;BMP180;7630;50.306;8.566;2022-09-09T13:37:26;97361.00;;;25.40
15062;BMP180;7630;50.306;8.566;2022-09-09T13:41:36;97362.00;;;26.60
15062;BMP180;7630;50.306;8.566;2022-09-09T13:45:39;97354.00;;;26.50
15062;BMP180;7630;50.306;8.566;2022-09-09T13:49:40;97356.00;;;25.80
15062;BMP180;7630;50.306;8.566;2022-09-09T13:53:42;97357.00;;;26.00
15062;BMP180;7630;50.306;8.566;2022-09-09T13:58:03;97357.00;;;25.50
15062;BMP180;7630;50.306;8.566;2022-09-09T14:02:07;97348.00;;;25.80
15062;BMP180;7630;50.306;8.566;2022-09-09T14:06:09;97364.00;;;25.20
15062;BMP180;7630;50.306;8.566;2022-09-09T14:10:11;97369.00;;;24.70
15062;BMP180;7630;50.306;8.566;2022-09-09T14:14:13;97378.00;;;23.80
15062;BMP180;7630;50.306;8.566;2022-09-09T14:18:14;97387.00;;;22.70
15062;BMP180;7630;50.306;8.566;2022-09-09T14:22:15;97384.00;;;22.40
15062;BMP180;7630;50.306;8.566;2022-09-09T14:26:16;97397.00;;;22.30
15062;BMP180;7630;50.306;8.566;2022-09-09T14:30:19;97389.00;;;22.00
15062;BMP180;7630;50.306;8.566;2022-09-09T14:34:20;97401.00;;;21.80
15062;BMP180;7630;50.306;8.566;2022-09-09T14:38:21;97393.00;;;21.00
15062;BMP180;7630;50.306;8.566;2022-09-09T14:42:23;97383.00;;;20.50
15062;BMP180;7630;50.306;8.566;2022-09-09T14:46:24;97384.00;;;20.70
15062;BMP180;7630;50.306;8.566;2022-09-09T14:50:26;97396.00;;;21.50
15062;BMP180;7630;50.306;8.566;2022-09-09T14:54:27;97393.00;;;21.00
15062;BMP180;7630;50.306;8.566;2022-09-09T14:58:31;97391.00;;;21.60
15062;BMP180;7630;50.306;8.566;2022-09-09T15:02:33;97384.00;;;21.50
15062;BMP180;7630;50.306;8.566;2022-09-09T15:06:35;97386.00;;;22.00
15062;BMP180;7630;50.306;8.566;2022-09-09T15:10:40;97380.00;;;21.40
15062;BMP180;7630;50.306;8.566;2022-09-09T15:14:41;97367.00;;;22.40
15062;BMP180;7630;50.306;8.566;2022-09-09T15:18:43;97366.00;;;23.00
15062;BMP180;7630;50.306;8.566;2022-09-09T15:22:45;97369.00;;;22.30
15062;BMP180;7630;50.306;8.566;2022-09-09T15:26:47;97384.00;;;22.50
15062;BMP180;7630;50.306;8.566;2022-09-09T15:30:52;97385.00;;;22.30
15062;BMP180;7630;50.306;8.566;2022-09-09T15:34:55;97392.00;;;21.80
15062;BMP180;7630;50.306;8.566;2022-09-09T15:38:57;97408.00;;;21.10
15062;BMP180;7630;50.306;8.566;2022-09-09T15:42:58;97406.00;;;21.30
15062;BMP180;7630;50.306;8.566;2022-09-09T15:46:59;97403.00;;;20.90
15062;BMP180;7630;50.306;8.566;2022-09-09T15:51:04;97389.00;;;21.20
15062;BMP180;7630;50.306;8.566;2022-09-09T15:55:07;97385.00;;;20.30
15062;BMP180;7630;50.306;8.566;2022-09-09T15:59:11;97384.00;;;20.20
15062;BMP180;7630;50.306;8.566;2022-09-09T16:03:12;97389.00;;;20.00
15062;BMP180;7630;50.306;8.566;2022-09-09T16:07:13;97388.00;;;20.10
15062;BMP180;7630;50.306;8.566;2022-09-09T16:11:17;97394.00;;;20.10
15062;BMP180;7630;50.306;8.566;2022-09-09T16:15:20;97397.00;;;20.20
15062;BMP180;7630;50.306;8.566;2022-09-09T16:19:23;97397.00;;;19.60
15062;BMP180;7630;50.306;8.566;2022-09-09T16:23:24;97405.00;;;19.70
15062;BMP180;7630;50.306;8.566;2022-09-09T16:27:25;97401.00;;;20.20
15062;BMP180;7630;50.306;8.566;2022-09-09T16:31:27;97393.00;;;20.20
15062;BMP180;7630;50.306;8.566;2022-09-09T16:35:30;97395.00;;;19.90
15062;BMP180;7630;50.306;8.566;2022-09-09T16:39:31;97392.00;;;19.40
15062;BMP180;7630;50.306;8.566;2022-09-09T16:43:33;97398.00;;;19.40
15062;BMP180;7630;50.306;8.566;2022-09-09T16:47:35;97397.00;;;19.60
15062;BMP180;7630;50.306;8.566;2022-09-09T16:51:43;97398.00;;;19.00
15062;BMP180;7630;50.306;8.566;2022-09-09T16:55:41;97413.00;;;19.60
15062;BMP180;7630;50.306;8.566;2022-09-09T16:59:43;97414.00;;;19.40
15062;BMP180;7630;50.306;8.566;2022-09-09T17:03:44;97417.00;;;19.30
15062;BMP180;7630;50.306;8.566;2022-09-09T17:07:45;97428.00;;;18.40
15062;BMP180;7630;50.306;8.566;2022-09-09T17:11:47;97423.00;;;18.60
15062;BMP180;7630;50.306;8.566;2022-09-09T17:15:51;97414.00;;;18.90
15062;BMP180;7630;50.306;8.566;2022-09-09T17:19:52;97426.00;;;19.10
15062;BMP180;7630;50.306;8.566;2022-09-09T17:23:54;97428.00;;;19.50
15062;BMP180;7630;50.306;8.566;2022-09-09T17:27:56;97433.00;;;19.90
15062;BMP180;7630;50.306;8.566;2022-09-09T17:31:58;97430.00;;;20.20
15062;BMP180;7630;50.306;8.566;2022-09-09T17:36:01;97434.00;;;20.20
15062;BMP180;7630;50.306;8.566;2022-09-09T17:40:02;97443.00;;;20.30
15062;BMP180;7630;50.306;8.566;2022-09-09T17:44:05;97444.00;;;20.10
15062;BMP180;7630;50.306;8.566;2022-09-09T17:48:08;97442.00;;;19.50
15062;BMP180;7630;50.306;8.566;2022-09-09T17:52:11;97440.00;;;19.80
15062;BMP180;7630;50.306;8.566;2022-09-09T17:56:14;97441.00;;;19.90
15062;BMP180;7630;50.306;8.566;2022-09-09T18:00:17;97443.00;;;19.60
15062;BMP180;7630;50.306;8.566;2022-09-09T18:04:18;97445.00;;;19.10
15062;BMP180;7630;50.306;8.566;2022-09-09T18:08:20;97436.00;;;19.50
15062;BMP180;7630;50.306;8.566;2022-09-09T18:12:21;97438.00;;;18.70
15062;BMP180;7630;50.306;8.566;2022-09-09T18:16:23;97432.00;;;19.00
15062;BMP180;7630;50.306;8.566;2022-09-09T18:20:26;97447.00;;;18.40
15062;BMP180;7630;50.306;8.566;2022-09-09T18:24:27;97444.00;;;19.10
15062;BMP180;7630;50.306;8.566;2022-09-09T18:28:28;97435.00;;;18.40
15062;BMP180;7630;50.306;8.566;2022-09-09T18:32:29;97440.00;;;18.50
15062;BMP180;7630;50.306;8.566;2022-09-09T18:36:33;97448.00;;;18.10
15062;BMP180;7630;50.306;8.566;2022-09-09T18:40:35;97453.00;;;18.00
15062;BMP180;7630;50.306;8.566;2022-09-09T18:44:38;97465.00;;;18.30
15062;BMP180;7630;50.306;8.566;2022-09-09T18:48:39;97469.00;;;18.10
15062;BMP180;7630;50.306;8.566;2022-09-09T18:52:41;97481.00;;;18.00
15062;BMP180;7630;50.306;8.566;2022-09-09T18:56:42;97479.00;;;17.50
15062;BMP180;7630;50.306;8.566;2022-09-09T19:00:45;97486.00;;;17.60
15062;BMP180;7630;50.306;8.566;2022-09-09T19:04:46;97476.00;;;17.40
15062;BMP180;7630;50.306;8.566;2022-09-09T19:08:50;97481.00;;;16.90
15062;BMP180;7630;50.306;8.566;2022-09-09T19:12:53;97481.00;;;17.00
15062;BMP180;7630;50.306;8.566;2022-09-09T19:16:55;97482.00;;;17.70
15062;BMP180;7630;50.306;8.566;2022-09-09T19:21:06;97483.00;;;17.40
15062;BMP180;7630;50.306;8.566;2022-09-09T19:25:00;97487.00;;;17.30
15062;BMP180;7630;50.306;8.566;2022-09-09T19:29:03;97492.00;;;17.40
15062;BMP180;7630;50.306;8.566;2022-09-09T19:33:04;97489.00;;;17.60
15062;BMP180;7630;50.306;8.566;2022-09-09T19:37:05;97485.00;;;17.80
15062;BMP180;7630;50.306;8.566;2022-09-09T19:41:08;97490.00;;;17.50
15062;BMP180;7630;50.306;8.566;2022-09-09T19:45:10;97495.00;;;17.70
15062;BMP180;7630;50.306;8.566;2022-09-09T19:49:12;97493.00;;;17.30
15062;BMP180;7630;50.306;8.566;2022-09-09T19:53:16;97494.00;;;17.60
15062;BMP180;7630;50.306;8.566;2022-09-09T19:57:18;97488.00;;;17.60
15062;BMP180;7630;50.306;8.566;2022-09-09T20:01:23;97486.00;;;17.60
15062;BMP180;7630;50.306;8.566;2022-09-09T20:05:24;97475.00;;;17.60
15062;BMP180;7630;50.306;8.566;2022-09-09T20:09:26;97477.00;;;18.00
15062;BMP180;7630;50.306;8.566;2022-09-09T20:13:29;97491.00;;;18.10
15062;BMP180;7630;50.306;8.566;2022-09-09T20:17:31;97481.00;;;18.40
15062;BMP180;7630;50.306;8.566;2022-09-09T20:21:35;97476.00;;;18.30
15062;BMP180;7630;50.306;8.566;2022-09-09T20:25:38;97469.00;;;18.10
15062;BMP180;7630;50.306;8.566;2022-09-09T20:29:39;97470.00;;;17.80
15062;BMP180;7630;50.306;8.566;2022-09-09T20:33:42;97482.00;;;18.10
15062;BMP180;7630;50.306;8.566;2022-09-09T20:37:43;97478.00;;;17.50
15062;BMP180;7630;50.306;8.566;2022-09-09T20:41:47;97477.00;;;17.60
15062;BMP180;7630;50.306;8.566;2022-09-09T20:45:48;97476.00;;;17.10
15062;BMP180;7630;50.306;8.566;2022-09-09T20:49:49;97486.00;;;17.20
15062;BMP180;7630;50.306;8.566;2022-09-09T20:54:05;97480.00;;;17.20
15062;BMP180;7630;50.306;8.566;2022-09-09T20:58:04;97478.00;;;17.20
15062;BMP180;7630;50.306;8.566;2022-09-09T21:02:06;97479.00;;;17.50
15062;BMP180;7630;50.306;8.566;2022-09-09T21:06:08;97492.00;;;17.30
15062;BMP180;7630;50.306;8.566;2022-09-09T21:10:09;97491.00;;;16.60
15062;BMP180;7630;50.306;8.566;2022-09-09T21:14:13;97493.00;;;17.00
15062;BMP180;7630;50.306;8.566;2022-09-09T21:18:15;97494.00;;;17.40
15062;BMP180;7630;50.306;8.566;2022-09-09T21:22:17;97497.00;;;16.90
15062;BMP180;7630;50.306;8.566;2022-09-09T21:26:18;97504.00;;;17.10
15062;BMP180;7630;50.306;8.566;2022-09-09T21:30:20;97504.00;;;17.00
15062;BMP180;7630;50.306;8.566;2022-09-09T21:34:23;97500.00;;;16.90
15062;BMP180;7630;50.306;8.566;2022-09-09T21:38:24;97505.00;;;17.00
15062;BMP180;7630;50.306;8.566;2022-09-09T21:42:25;97505.00;;;16.50
15062;BMP180;7630;50.306;8.566;2022-09-09T21:46:26;97518.00;;;16.90
15062;BMP180;7630;50.306;8.566;2022-09-09T21:50:27;97505.00;;;16.40
15062;BMP180;7630;50.306;8.566;2022-09-09T21:54:29;97503.00;;;16.50
15062;BMP180;7630;50.306;8.566;2022-09-09T21:58:32;97501.00;;;17.00
15062;BMP180;7630;50.306;8.566;2022-09-09T22:02:34;97515.00;;;16.90
15062;BMP180;7630;50.306;8.566;2022-09-09T22:06:36;97511.00;;;17.00
15062;BMP180;7630;50.306;8.566;2022-09-09T22:10:40;97521.00;;;17.30
15062;BMP180;7630;50.306;8.566;2022-09-09T22:14:42;97525.00;;;17.20
15062;BMP180;7630;50.306;8.566;2022-09-09T22:18:43;97521.00;;;17.10
15062;BMP180;7630;50.306;8.566;2022-09-09T22:22:43;97527.00;;;17.20
15062;BMP180;7630;50.306;8.566;2022-09-09T22:26:44;97521.00;;;17.20
15062;BMP180;7630;50.306;8.566;2022-09-09T22:30:47;97516.00;;;17.10
15062;BMP180;7630;50.306;8.566;2022-09-09T22:34:48;97515.00;;;17.60
15062;BMP180;7630;50.306;8.566;2022-09-09T22:38:50;97521.00;;;17.30
15062;BMP180;7630;50.306;8.566;2022-09-09T22:42:52;97520.00;;;17.10
15062;BMP180;7630;50.306;8.566;2022-09-09T22:46:54;97523.00;;;17.90
15062;BMP180;7630;50.306;8.566;2022-09-09T22:51:01;97530.00;;;17.60
15062;BMP180;7630;50.306;8.566;2022-09-09T22:55:03;97516.00;;;17.70
15062;BMP180;7630;50.306;8.566;2022-09-09T22:59:05;97514.00;;;17.40
15062;BMP180;7630;50.306;8.566;2022-09-09T23:03:06;97518.00;;;17.80
15062;BMP180;7630;50.306;8.566;2022-09-09T23:07:07;97523.00;;;17.70
15062;BMP180;7630;50.306;8.566;2022-09-09T23:11:10;97520.00;;;17.70
15062;BMP180;7630;50.306;8.566;2022-09-09T23:15:11;97528.00;;;17.90
15062;BMP180;7630;50.306;8.566;2022-09-09T23:19:14;97533.00;;;17.70
15062;BMP180;7630;50.306;8.566;2022-09-09T23:23:16;97538.00;;;17.20
15062;BMP180;7630;50.306;8.566;2022-09-09T23:27:17;97540.00;;;17.20
15062;BMP180;7630;50.306;8.566;2022-09-09T23:31:21;97562.00;;;18.00
15062;BMP180;7630;50.306;8.566;2022-09-09T23:35:22;97549.00;;;17.70
15062;BMP180;7630;50.306;8.566;2022-09-09T23:39:23;97551.00;;;17.70
15062;BMP180;7630;50.306;8.566;2022-09-09T23:43:24;97548.00;;;17.60
15062;BMP180;7630;50.306;8.566;2022-09-09T23:47:26;97541.00;;;17.40
15062;BMP180;7630;50.306;8.566;2022-09-09T23:51:30;97549.00;;;17.90
15062;BMP180;7630;50.306;8.566;2022-09-09T23:55:31;97534.00;;;18.20
15062;BMP180;7630;50.306;8.566;2022-09-09T23:59:33;97532.00;;;17.50
